Terminal Aerodrome Forecast
Issued by NWS Dallas/Fort Worth, TX

Home | Current Version | Previous Version | Text Only | Print | Product List | Glossary On
Versions: 1 2 3 4 5 6 7 8 9 10 11 12 13 14 15 16 17 18 19 20 21 22 23 24 25 26 27 28 29 30 31 32 33 34 35 36 37
000
FTUS44 KFWD 192300
TAFACT
TAF
KACT 192320Z 2000/2024 12006KT P6SM VCSH SCT050 BKN250
     FM200100 13006KT P6SM SCT050
     FM200800 13006KT 6SM BR OVC018
     FM201200 13005KT 2SM BR OVC006
     FM201500 13007KT 6SM BR OVC013
     FM201700 13007KT P6SM OVC022
     FM201900 14008KT P6SM BKN040=

USA.gov is the U.S. government's official web portal to all federal, state and local government web resources and services.